createdAt,value
2022-11-22T00:00:33.777Z,100.00
2022-11-22T00:03:15.033Z,100.00
2022-11-22T00:05:42.101Z,100.00
2022-11-22T00:08:08.852Z,100.00
2022-11-22T00:10:36.147Z,100.00
2022-11-22T00:13:03.205Z,100.00
2022-11-22T00:15:30.665Z,100.00
2022-11-22T00:17:57.740Z,100.00
2022-11-22T00:20:25.297Z,100.00
2022-11-22T00:22:52.193Z,100.00
2022-11-22T00:25:19.569Z,100.00
2022-11-22T00:27:46.351Z,100.00
2022-11-22T00:30:13.553Z,100.00
2022-11-22T00:32:40.375Z,100.00
2022-11-22T00:35:07.738Z,100.00
2022-11-22T00:37:34.605Z,100.00
2022-11-22T00:40:02.388Z,100.00
2022-11-22T00:42:29.223Z,100.00
2022-11-22T00:44:56.394Z,100.00
2022-11-22T00:47:23.300Z,100.00
2022-11-22T00:49:50.368Z,100.00
2022-11-22T00:52:17.246Z,100.00
2022-11-22T00:54:50.045Z,100.00
2022-11-22T00:57:19.936Z,100.00
2022-11-22T00:59:47.046Z,100.00
2022-11-22T01:02:13.771Z,100.00
2022-11-22T01:04:40.909Z,100.00
2022-11-22T01:07:07.729Z,100.00
2022-11-22T01:09:35.059Z,100.00
2022-11-22T01:12:01.808Z,100.00
2022-11-22T01:14:28.911Z,100.00
2022-11-22T01:16:55.621Z,100.00
2022-11-22T01:19:22.702Z,100.00
2022-11-22T01:21:49.448Z,100.00
2022-11-22T01:24:16.490Z,100.00
2022-11-22T01:26:43.232Z,100.00
2022-11-22T01:29:10.307Z,100.00
2022-11-22T01:31:37.092Z,100.00
2022-11-22T01:34:05.469Z,100.00
2022-11-22T01:36:32.226Z,100.00
2022-11-22T01:38:59.282Z,100.00
2022-11-22T01:41:26.151Z,100.00
2022-11-22T01:43:53.232Z,100.00
2022-11-22T01:46:30.041Z,100.00
2022-11-22T01:49:03.339Z,100.00
2022-11-22T01:51:37.125Z,100.00
2022-11-22T01:54:15.855Z,100.00
2022-11-22T01:56:46.424Z,100.00
2022-11-22T01:59:17.078Z,100.00
2022-11-22T02:01:44.167Z,100.00
2022-11-22T02:04:15.969Z,100.00
2022-11-22T02:06:51.886Z,100.00
2022-11-22T02:09:18.992Z,100.00
2022-11-22T02:11:49.153Z,100.00
2022-11-22T02:14:21.058Z,100.00
2022-11-22T02:16:48.641Z,100.00
2022-11-22T02:19:38.125Z,100.00
2022-11-22T02:22:31.276Z,100.00
2022-11-22T02:25:04.229Z,100.00
2022-11-22T02:27:31.153Z,100.00
2022-11-22T02:29:58.143Z,100.00
2022-11-22T02:32:24.925Z,100.00
2022-11-22T02:34:52.114Z,100.00
2022-11-22T02:37:25.733Z,100.00
2022-11-22T02:40:01.088Z,100.00
2022-11-22T02:42:30.950Z,100.00
2022-11-22T02:44:58.108Z,100.00
2022-11-22T02:47:24.987Z,100.00
2022-11-22T02:49:55.232Z,100.00
2022-11-22T02:52:22.131Z,100.00
2022-11-22T02:54:49.236Z,100.00
2022-11-22T02:57:15.985Z,100.00
2022-11-22T02:59:43.152Z,100.00
2022-11-22T03:02:10.000Z,100.00
2022-11-22T03:04:37.111Z,100.00
2022-11-22T03:07:04.628Z,100.00
2022-11-22T03:09:32.650Z,100.00
2022-11-22T03:11:59.777Z,100.00
2022-11-22T03:14:27.222Z,100.00
2022-11-22T03:16:53.975Z,100.00
2022-11-22T03:19:21.510Z,100.00
2022-11-22T03:21:49.115Z,100.00
2022-11-22T03:24:17.056Z,100.00
2022-11-22T03:26:48.877Z,100.00
2022-11-22T03:29:17.645Z,100.00
2022-11-22T03:31:44.440Z,100.00
2022-11-22T03:34:12.772Z,100.00
2022-11-22T03:36:39.551Z,100.00
2022-11-22T03:39:06.645Z,100.00
2022-11-22T03:41:33.421Z,100.00
2022-11-22T03:44:00.461Z,100.00
2022-11-22T03:46:27.267Z,100.00
2022-11-22T03:48:54.354Z,100.00
2022-11-22T03:51:21.237Z,100.00
2022-11-22T03:53:48.325Z,100.00
2022-11-22T03:56:15.252Z,100.00
2022-11-22T03:58:43.398Z,100.00
2022-11-22T04:01:16.206Z,100.00
2022-11-22T04:03:43.909Z,100.00
2022-11-22T04:06:10.651Z,100.00
2022-11-22T04:08:37.738Z,100.00
2022-11-22T04:11:04.537Z,100.00
2022-11-22T04:13:49.992Z,100.00
2022-11-22T04:16:16.729Z,100.00
2022-11-22T04:18:43.761Z,100.00
2022-11-22T04:21:29.145Z,100.00
2022-11-22T04:24:14.532Z,100.00
2022-11-22T04:26:41.246Z,100.00
2022-11-22T04:29:10.103Z,100.00
2022-11-22T04:31:56.505Z,100.00
2022-11-22T04:34:23.740Z,100.00
2022-11-22T04:36:50.545Z,100.00
2022-11-22T04:39:17.657Z,100.00
2022-11-22T04:41:44.465Z,100.00
2022-11-22T04:44:30.433Z,100.00
2022-11-22T04:46:57.457Z,100.00
2022-11-22T04:49:24.489Z,100.00
2022-11-22T04:52:09.824Z,100.00
2022-11-22T04:54:37.043Z,100.00
2022-11-22T04:57:03.949Z,100.00
2022-11-22T04:59:31.200Z,100.00
2022-11-22T05:01:58.233Z,100.00
2022-11-22T05:04:25.283Z,100.00
2022-11-22T05:06:52.055Z,100.00
2022-11-22T05:09:19.173Z,100.00
2022-11-22T05:11:45.906Z,100.00
2022-11-22T05:14:12.996Z,100.00
2022-11-22T05:16:39.745Z,100.00
2022-11-22T05:19:06.956Z,100.00
2022-11-22T05:21:35.877Z,100.00
2022-11-22T05:24:03.820Z,100.00
2022-11-22T05:26:32.896Z,100.00
2022-11-22T05:29:07.989Z,100.00
2022-11-22T05:31:36.296Z,100.00
2022-11-22T05:34:04.292Z,100.00
2022-11-22T05:36:32.890Z,100.00
2022-11-22T05:39:00.688Z,100.00
2022-11-22T05:41:27.628Z,100.00
2022-11-22T05:43:57.928Z,100.00
2022-11-22T05:46:27.571Z,100.00
2022-11-22T05:48:56.313Z,100.00
2022-11-22T05:51:29.116Z,100.00
2022-11-22T05:53:59.521Z,100.00
2022-11-22T05:56:26.268Z,100.00
2022-11-22T05:58:53.675Z,100.00
2022-11-22T06:01:23.016Z,100.00
2022-11-22T06:03:50.765Z,100.00
2022-11-22T06:06:18.054Z,100.00
2022-11-22T06:08:47.890Z,100.00
2022-11-22T06:11:18.149Z,100.00
2022-11-22T06:13:47.468Z,100.00
2022-11-22T06:16:14.885Z,100.00
2022-11-22T06:18:42.686Z,100.00
2022-11-22T06:21:14.964Z,100.00
2022-11-22T06:23:42.308Z,100.00
2022-11-22T06:26:12.268Z,100.00
2022-11-22T06:28:40.864Z,100.00
2022-11-22T06:31:14.508Z,100.00
2022-11-22T06:33:43.138Z,100.00
2022-11-22T06:36:13.068Z,100.00
2022-11-22T06:38:41.992Z,100.00
2022-11-22T06:41:10.940Z,100.00
2022-11-22T06:43:42.382Z,100.00
2022-11-22T06:46:12.717Z,100.00
2022-11-22T06:48:40.884Z,100.00
2022-11-22T06:51:13.314Z,100.00
2022-11-22T06:53:49.252Z,100.00
2022-11-22T06:56:22.105Z,100.00
2022-11-22T06:58:51.011Z,100.00
2022-11-22T07:01:20.610Z,99.90
2022-11-22T07:03:48.980Z,97.24
2022-11-22T07:06:17.830Z,95.15
2022-11-22T07:08:45.965Z,95.41
2022-11-22T07:11:19.053Z,94.63
2022-11-22T07:13:47.353Z,93.06
2022-11-22T07:16:16.213Z,93.52
2022-11-22T07:18:43.536Z,90.62
2022-11-22T07:21:18.067Z,89.30
2022-11-22T07:23:47.245Z,88.99
2022-11-22T07:26:16.207Z,88.97
2022-11-22T07:28:43.191Z,90.06
2022-11-22T07:31:11.845Z,87.53
2022-11-22T07:33:39.658Z,86.88
2022-11-22T07:36:14.468Z,87.46
2022-11-22T07:38:41.587Z,88.89
2022-11-22T07:41:09.978Z,88.56
2022-11-22T07:43:37.596Z,85.28
2022-11-22T07:46:06.922Z,82.67
2022-11-22T07:48:34.530Z,80.31
2022-11-22T07:51:06.127Z,79.18
2022-11-22T07:53:33.849Z,80.49
2022-11-22T07:56:05.195Z,76.98
2022-11-22T07:58:33.022Z,74.58
2022-11-22T08:01:05.723Z,72.40
2022-11-22T08:03:32.812Z,73.40
2022-11-22T08:06:00.896Z,75.27
2022-11-22T08:08:28.188Z,71.26
2022-11-22T08:10:54.955Z,72.68
2022-11-22T08:13:22.073Z,71.77
2022-11-22T08:15:49.748Z,71.34
2022-11-22T08:18:17.164Z,74.34
2022-11-22T08:20:44.101Z,71.82
2022-11-22T08:23:11.383Z,72.13
2022-11-22T08:25:38.188Z,75.55
2022-11-22T08:28:05.366Z,75.35
2022-11-22T08:30:32.204Z,76.06
2022-11-22T08:32:59.672Z,75.35
2022-11-22T08:35:26.405Z,74.72
2022-11-22T08:37:57.670Z,75.09
2022-11-22T08:40:24.849Z,77.31
2022-11-22T08:42:55.690Z,79.01
2022-11-22T08:45:22.746Z,79.19
2022-11-22T08:47:50.112Z,76.79
2022-11-22T08:50:18.324Z,76.75
2022-11-22T08:52:45.557Z,78.54
2022-11-22T08:55:12.349Z,76.15
2022-11-22T08:57:39.456Z,74.87
2022-11-22T09:00:08.165Z,73.61
2022-11-22T09:02:35.226Z,71.91
2022-11-22T09:05:02.160Z,71.68
2022-11-22T09:10:17.045Z,71.88
2022-11-22T09:12:46.121Z,72.18
2022-11-22T09:15:13.814Z,74.51
2022-11-22T09:17:40.926Z,72.67
2022-11-22T09:20:08.477Z,72.92
2022-11-22T09:22:35.756Z,73.92
2022-11-22T09:25:03.387Z,75.82
2022-11-22T09:27:30.428Z,75.30
2022-11-22T09:29:57.293Z,76.87
2022-11-22T09:32:28.216Z,74.21
2022-11-22T09:34:59.095Z,76.56
2022-11-22T09:37:26.145Z,72.88
2022-11-22T09:39:52.880Z,72.60
2022-11-22T09:42:44.002Z,72.45
2022-11-22T09:45:25.572Z,71.02
2022-11-22T09:48:18.265Z,73.38
2022-11-22T09:51:09.941Z,72.12
2022-11-22T09:53:51.111Z,69.53
2022-11-22T09:56:21.619Z,70.86
2022-11-22T09:59:00.669Z,68.91
2022-11-22T10:01:41.119Z,68.86
2022-11-22T10:04:11.261Z,68.96
2022-11-22T10:06:43.603Z,60.67
2022-11-22T10:09:29.687Z,63.96
2022-11-22T10:12:06.980Z,63.62
2022-11-22T10:14:43.466Z,62.79
2022-11-22T10:17:44.429Z,63.75
2022-11-22T10:20:19.064Z,59.62
2022-11-22T10:22:46.980Z,59.47
2022-11-22T10:25:27.618Z,61.96
2022-11-22T10:28:05.638Z,61.39
2022-11-22T10:30:39.497Z,62.41
2022-11-22T10:33:25.628Z,62.68
2022-11-22T10:36:12.975Z,62.46
2022-11-22T10:38:47.313Z,63.54
2022-11-22T10:41:17.365Z,61.70
2022-11-22T10:43:55.259Z,58.78
2022-11-22T10:46:51.087Z,57.11
2022-11-22T10:49:45.110Z,56.87
2022-11-22T10:52:39.918Z,55.00
2022-11-22T10:55:23.409Z,55.57
2022-11-22T10:58:04.873Z,56.43
2022-11-22T11:00:36.436Z,53.28
2022-11-22T11:03:23.583Z,53.87
2022-11-22T11:07:04.723Z,52.03
2022-11-22T11:10:27.892Z,54.56
2022-11-22T11:12:41.514Z,51.21
2022-11-22T11:15:24.828Z,45.27
2022-11-22T11:17:58.945Z,47.36
2022-11-22T11:20:28.859Z,44.05
2022-11-22T11:25:45.774Z,43.93
2022-11-22T11:28:27.443Z,46.17
2022-11-22T11:30:56.493Z,46.07
2022-11-22T11:33:29.858Z,46.12
2022-11-22T11:36:06.541Z,47.25
2022-11-22T11:38:33.327Z,49.73
2022-11-22T11:41:28.556Z,50.46
2022-11-22T11:43:58.069Z,49.95
2022-11-22T11:46:28.007Z,48.79
2022-11-22T11:49:20.794Z,52.27
2022-11-22T11:51:53.124Z,53.25
2022-11-22T11:54:23.860Z,49.37
2022-11-22T11:56:58.201Z,50.63
2022-11-22T11:59:40.071Z,52.35
2022-11-22T12:02:24.155Z,52.23
2022-11-22T12:05:04.974Z,52.63
2022-11-22T12:07:34.808Z,53.08
2022-11-22T12:10:04.261Z,55.25
2022-11-22T12:12:46.814Z,56.02
2022-11-22T12:15:23.752Z,58.70
2022-11-22T12:17:54.696Z,57.95
2022-11-22T12:20:45.992Z,58.35
2022-11-22T12:23:21.648Z,56.52
2022-11-22T12:25:50.890Z,56.68
2022-11-22T12:28:21.619Z,57.99
2022-11-22T12:30:56.053Z,58.38
2022-11-22T12:33:30.148Z,59.32
2022-11-22T12:35:57.834Z,60.59
2022-11-22T12:38:31.756Z,58.24
2022-11-22T12:41:03.986Z,55.28
2022-11-22T12:43:40.049Z,55.07
2022-11-22T12:46:39.491Z,56.29
2022-11-22T12:49:15.660Z,57.25
2022-11-22T12:51:52.751Z,59.56
2022-11-22T12:54:28.588Z,60.64
2022-11-22T12:57:05.600Z,60.45
2022-11-22T12:59:41.350Z,57.32
2022-11-22T13:02:25.570Z,57.40
2022-11-22T13:05:04.596Z,54.61
2022-11-22T13:07:50.108Z,52.86
2022-11-22T13:10:42.215Z,53.56
2022-11-22T13:13:37.784Z,53.93
2022-11-22T13:16:09.606Z,53.54
2022-11-22T13:19:01.244Z,53.31
2022-11-22T13:22:06.747Z,52.34
2022-11-22T13:24:41.909Z,53.84
2022-11-22T13:27:17.464Z,56.98
2022-11-22T13:29:45.345Z,55.74
2022-11-22T13:32:12.280Z,55.08
2022-11-22T13:35:01.549Z,52.09
2022-11-22T13:37:30.480Z,53.16
2022-11-22T13:40:28.978Z,53.17
2022-11-22T13:43:21.212Z,54.92
2022-11-22T13:46:01.424Z,54.18
2022-11-22T13:48:51.530Z,53.27
2022-11-22T13:51:52.611Z,56.67
2022-11-22T13:54:56.805Z,56.07
2022-11-22T13:57:29.737Z,55.98
2022-11-22T14:00:14.777Z,55.01
2022-11-22T14:02:46.169Z,54.81
2022-11-22T14:05:38.077Z,56.53
2022-11-22T14:08:37.464Z,56.32
2022-11-22T14:11:13.622Z,58.74
2022-11-22T14:13:42.524Z,64.42
2022-11-22T14:16:36.705Z,69.37
2022-11-22T14:19:37.041Z,69.93
2022-11-22T14:22:10.648Z,69.99
2022-11-22T14:24:52.950Z,71.91
2022-11-22T14:27:47.297Z,74.28
2022-11-22T14:30:22.773Z,76.89
2022-11-22T14:33:00.493Z,79.06
2022-11-22T14:35:32.249Z,80.73
2022-11-22T14:38:32.206Z,82.35
2022-11-22T14:41:31.226Z,83.72
2022-11-22T14:44:04.126Z,86.18
2022-11-22T14:46:53.205Z,91.73
2022-11-22T14:49:46.633Z,95.83
2022-11-22T14:52:29.881Z,96.88
2022-11-22T14:55:00.660Z,99.72
2022-11-22T14:57:30.899Z,100.00
2022-11-22T15:00:24.106Z,100.00
2022-11-22T15:03:20.433Z,100.00
2022-11-22T15:09:22.949Z,100.00
2022-11-22T15:09:53.058Z,100.00
2022-11-22T15:12:35.644Z,100.00
2022-11-22T15:59:43.282Z,100.00
2022-11-22T16:02:15.129Z,100.00
2022-11-22T16:06:07.515Z,100.00
2022-11-22T16:07:55.304Z,100.00
2022-11-22T16:10:28.255Z,100.00
2022-11-22T16:12:55.064Z,100.00
2022-11-22T16:15:36.434Z,100.00
2022-11-22T16:18:27.223Z,100.00
2022-11-22T16:21:12.422Z,100.00
2022-11-22T16:23:41.048Z,100.00
2022-11-22T16:26:17.305Z,100.00
2022-11-22T16:28:44.784Z,100.00
2022-11-22T16:31:26.394Z,100.00
2022-11-22T16:33:54.941Z,100.00
2022-11-22T16:36:23.758Z,100.00
2022-11-22T16:38:50.981Z,100.00
2022-11-22T16:41:24.127Z,100.00
2022-11-22T16:43:56.376Z,100.00
2022-11-22T16:46:23.541Z,100.00
2022-11-22T16:48:50.497Z,100.00
2022-11-22T16:51:23.692Z,100.00
2022-11-22T16:53:53.215Z,100.00
2022-11-22T16:56:21.833Z,100.00
2022-11-22T16:58:49.868Z,100.00
2022-11-22T17:01:20.797Z,100.00
2022-11-22T17:03:49.822Z,100.00
2022-11-22T17:06:19.298Z,100.00
2022-11-22T17:08:47.598Z,100.00
2022-11-22T17:11:20.476Z,100.00
2022-11-22T17:13:47.627Z,100.00
2022-11-22T17:16:17.789Z,100.00
2022-11-22T17:18:46.238Z,100.00
2022-11-22T17:21:20.921Z,100.00
2022-11-22T17:23:49.556Z,100.00
2022-11-22T17:26:16.668Z,100.00
2022-11-22T17:28:43.433Z,100.00
2022-11-22T17:31:15.382Z,100.00
2022-11-22T17:33:42.464Z,100.00
2022-11-22T17:36:21.070Z,100.00
2022-11-22T17:38:48.233Z,100.00
2022-11-22T17:41:15.489Z,100.00
2022-11-22T17:43:42.379Z,100.00
2022-11-22T17:46:09.497Z,100.00
2022-11-22T17:48:36.446Z,100.00
2022-11-22T17:51:11.380Z,100.00
2022-11-22T17:53:39.392Z,100.00
2022-11-22T17:56:11.213Z,100.00
2022-11-22T17:58:40.312Z,100.00
2022-11-22T18:01:10.199Z,100.00
2022-11-22T18:03:37.852Z,100.00
2022-11-22T18:06:05.997Z,100.00
2022-11-22T18:08:33.763Z,100.00
2022-11-22T18:11:01.571Z,100.00
2022-11-22T18:13:30.527Z,100.00
2022-11-22T18:16:03.499Z,100.00
2022-11-22T18:21:19.688Z,100.00
2022-11-22T18:23:46.441Z,100.00
2022-11-22T18:29:35.552Z,100.00
2022-11-22T18:31:52.071Z,100.00
2022-11-22T18:34:20.117Z,100.00
2022-11-22T18:37:04.211Z,100.00
2022-11-22T18:39:35.029Z,100.00
2022-11-22T18:42:03.747Z,100.00
2022-11-22T18:44:30.587Z,100.00
2022-11-22T18:46:58.481Z,100.00
2022-11-22T18:49:25.381Z,100.00
2022-11-22T18:51:52.597Z,100.00
2022-11-22T18:54:20.273Z,100.00
2022-11-22T18:56:47.394Z,100.00
2022-11-22T18:59:14.302Z,100.00
2022-11-22T19:01:41.748Z,100.00
2022-11-22T19:04:13.690Z,100.00
2022-11-22T19:06:42.047Z,100.00
2022-11-22T19:09:09.576Z,100.00
2022-11-22T19:11:36.663Z,100.00
2022-11-22T19:14:03.893Z,100.00
2022-11-22T19:16:31.648Z,100.00
2022-11-22T19:18:59.082Z,100.00
2022-11-22T19:21:28.061Z,100.00
2022-11-22T19:23:56.588Z,100.00
2022-11-22T19:26:25.692Z,100.00
2022-11-22T19:28:55.937Z,100.00
2022-11-22T19:31:25.721Z,100.00
2022-11-22T19:33:52.355Z,100.00
2022-11-22T19:36:23.493Z,100.00
2022-11-22T19:38:53.328Z,100.00
2022-11-22T19:41:22.951Z,100.00
2022-11-22T19:43:51.187Z,100.00
2022-11-22T19:46:21.556Z,100.00
2022-11-22T19:48:56.849Z,100.00
2022-11-22T19:51:25.287Z,100.00
2022-11-22T19:54:10.008Z,100.00
2022-11-22T19:56:38.480Z,100.00
2022-11-22T19:59:07.701Z,100.00
2022-11-22T20:01:35.426Z,100.00
2022-11-22T20:04:05.205Z,100.00
2022-11-22T20:06:33.872Z,100.00
2022-11-22T20:09:11.826Z,100.00
2022-11-22T20:11:40.647Z,100.00
2022-11-22T20:14:09.451Z,100.00
2022-11-22T20:16:41.301Z,100.00
2022-11-22T20:19:09.699Z,100.00
2022-11-22T20:21:37.649Z,100.00
2022-11-22T20:24:05.558Z,100.00
2022-11-22T20:26:34.077Z,100.00
2022-11-22T20:29:08.229Z,100.00
2022-11-22T20:31:37.957Z,100.00
2022-11-22T20:34:05.471Z,100.00
2022-11-22T20:36:34.790Z,100.00
2022-11-22T20:39:05.592Z,100.00
2022-11-22T20:41:36.834Z,100.00
2022-11-22T20:44:04.125Z,100.00
2022-11-22T20:46:31.264Z,100.00
2022-11-22T20:48:58.289Z,100.00
2022-11-22T20:51:27.640Z,100.00
2022-11-22T20:53:55.316Z,100.00
2022-11-22T20:56:23.058Z,100.00
2022-11-22T20:58:50.358Z,100.00
2022-11-22T21:01:20.195Z,100.00
2022-11-22T21:03:47.861Z,100.00
2022-11-22T21:06:16.212Z,100.00
2022-11-22T21:08:44.665Z,100.00
2022-11-22T21:11:12.863Z,100.00
2022-11-22T21:13:40.589Z,100.00
2022-11-22T21:16:22.262Z,100.00
2022-11-22T21:18:54.323Z,100.00
2022-11-22T21:21:24.130Z,100.00
2022-11-22T21:23:53.053Z,100.00
2022-11-22T21:26:20.864Z,100.00
2022-11-22T21:28:47.832Z,100.00
2022-11-22T21:31:15.038Z,100.00
2022-11-22T21:33:42.755Z,100.00
2022-11-22T21:36:10.063Z,100.00
2022-11-22T21:38:38.541Z,100.00
2022-11-22T21:41:38.226Z,100.00
2022-11-22T21:43:56.257Z,100.00
2022-11-22T21:46:24.381Z,100.00
2022-11-22T21:48:51.862Z,100.00
2022-11-22T21:51:18.941Z,100.00
2022-11-22T21:53:45.866Z,100.00
2022-11-22T21:56:12.972Z,100.00
2022-11-22T21:58:39.826Z,100.00
2022-11-22T22:01:13.647Z,100.00
2022-11-22T22:03:41.177Z,100.00
2022-11-22T22:06:08.597Z,100.00
2022-11-22T22:08:35.614Z,100.00
2022-11-22T22:11:05.272Z,100.00
2022-11-22T22:13:32.854Z,100.00
2022-11-22T22:16:03.883Z,100.00
2022-11-22T22:18:32.624Z,100.00
2022-11-22T22:21:05.522Z,100.00
2022-11-22T22:23:34.375Z,100.00
2022-11-22T22:26:03.171Z,100.00
2022-11-22T22:28:31.868Z,100.00
2022-11-22T22:31:23.048Z,100.00
2022-11-22T22:33:55.052Z,100.00
2022-11-22T22:36:23.884Z,100.00
2022-11-22T22:38:50.637Z,100.00
2022-11-22T22:41:17.852Z,100.00
2022-11-22T22:43:47.059Z,100.00
2022-11-22T22:46:16.769Z,100.00
2022-11-22T22:48:43.888Z,100.00
2022-11-22T22:51:16.633Z,100.00
2022-11-22T22:53:45.556Z,100.00
2022-11-22T22:56:14.468Z,100.00
2022-11-22T22:58:41.862Z,100.00
2022-11-22T23:01:14.827Z,100.00
2022-11-22T23:03:41.748Z,100.00
2022-11-22T23:06:11.556Z,100.00
2022-11-22T23:08:39.340Z,100.00
2022-11-22T23:11:08.532Z,100.00
2022-11-22T23:13:37.158Z,100.00
2022-11-22T23:16:05.416Z,100.00
2022-11-22T23:18:35.817Z,100.00
2022-11-22T23:21:05.409Z,100.00
2022-11-22T23:23:32.901Z,100.00
2022-11-22T23:26:08.312Z,100.00
2022-11-22T23:28:35.202Z,100.00
2022-11-22T23:31:05.300Z,100.00
2022-11-22T23:33:32.014Z,100.00
2022-11-22T23:36:04.420Z,100.00
2022-11-22T23:38:31.668Z,100.00
2022-11-22T23:40:59.460Z,100.00
2022-11-22T23:43:26.470Z,100.00
2022-11-22T23:45:53.568Z,100.00
2022-11-22T23:48:20.338Z,100.00
2022-11-22T23:50:47.509Z,100.00
2022-11-22T23:53:14.301Z,100.00
2022-11-22T23:55:41.445Z,100.00
2022-11-22T23:58:08.177Z,100.00
